Whitefish Bay: Past 24 Hour Conditions

 

Sault Ste. Marie Airport

02:00 PM EDT 28 March 2015
Disclaimer

This table is a summary of hourly weather conditions for the past 24 hours.
Please note that these observations might not always be representative of weather conditions over their associated marine area.

Date / Time
(EDT)
Wind(knots) Conditions Visibility(km) Pressure(kPa) Air tempC) Relative humidity(%) Dew pointC) Wind Chill
28 March 2015
14:00 WNW 10 Sunny 24 102.7 -4 52 -13 -10
13:00 WNW 9 Sunny 24 102.7 -6 67 -12 -12
12:00 W 9 Sunny 24 102.8 -8 75 -12 -14
11:00 W 6 Sunny 24 102.8 -10 85 -13 -16
10:00 WNW 8 Sunny 24 102.8 -14 86 -15 -21
9:00 WSW 4 Sunny 24 102.8 -16 86 -18 -21
8:00 WNW 3 Sunny 24 102.7 -18 88 -19 -22
7:00 WNW 6 Clear 24 102.7 -18 87 -20 -25
6:00 W 3 Clear 24 102.6 -17 88 -18 -21
5:00 WNW 9 Clear 24 102.6 -16 87 -18 -25
4:00 WNW 10 Clear 24 102.6 -16 87 -18 -25
3:00 W 6 Clear 24 102.6 -16 85 -18 -23
2:00 WNW 7 Clear 24 102.6 -16 86 -17 -23
1:00 WNW 7 Clear 24 102.6 -16 87 -17 -23
0:00 NW 7 Clear 24 102.5 -14 85 -16 -21
27 March 2015
23:00 NW 11 Clear 24 102.5 -14 85 -16 -23
22:00 NW 14 Clear 24 102.5 -13 85 -15 -23
21:00 WNW 13 Clear 24 102.5 -13 84 -15 -23
20:00 NW 16 Clear 24 102.4 -12 78 -15 -22
19:00 NW 17 gust 24 Sunny 24 102.4 -11 76 -15 -21
18:00 NW 16 Sunny 24 102.3 -11 68 -16 -21
17:00 WNW 20 Sunny 24 102.3 -11 73 -15 -22
16:00 WNW 18 Sunny 24 102.3 -12 75 -15 -22
15:00 WNW 18 Sunny 24 102.3 -12 70 -16 -22
14:00 WNW 19 Mainly Sunny 24 102.4 -13 71 -17 -24

Zoom-in to make a selection

Map of Great Lakes - Lake Erie and Lake Ontario marine weather areas Egbert N Huron - 45003 W Erie - 45005 S Huron - 45008 Lake Ontario - 45012 Port Stanley - 45132 Prince Edward Point - 45135 Georgian Bay - 45137 Grimsby - 45139 Port Colborne - 45142 South Georgian Bay - 45143 Lake St Clair - 45147 South Lake Huron - 45149 Lake Simcoe - 45151 Lake Nipissing - 45152 North Channel - 45154 Ajax - 45159 Sault Ste. Marie Airport Greater Sudbury Airport North Bay Airport Gore Bay-Manitoulin Airport Great Duck Island Brockville Grenadier Island Kemptville Kingston Airport Collingwood Lagoon City Muskoka Airport Parry Sound Harbour Lake Simcoe Regional Airport Wiarton Airport Goderich Sarnia Chris Hadfield Airport Tobermory Harrow AAFC Port Weller St. Catharines Airport Southeast Shoal Vineland Station Welland-Pelham Windsor Airport Burlington Lift Bridge Cobourg Hamilton Munro Int'l Airport Oshawa Municipal Airport Point Petre Toronto City Centre Airport Toronto Pearson Int'l Airport CFB Trenton Peterborough Municipal Airport Killarney Western Islands CFB Borden Cove Island Long Point Port Colborne Erieau Point Pelee Toronto Buttonville Municipal Airport
Legend:
buoy Buoy
land station Land Station

Great Lakes - Lake Erie and Lake Ontario Area

Another Region

What we are doing

Date modified: